Gulden Leeuw — PCBH — position and weather

sailwx.info

Track history (hours):
 
Tides and Currents Weather Stations Pressure Air Temp Water Temp Dewpoint Dewpoint Depression Visibility Wind Speed Wind Dir Waves Ship Positions

Gulden Leeuw

Last reported at 2018-Oct-19 06:40 UTC. Time now 2018-Dec-10 23:58 UTC.
Position N 35°58' W 005°37'.
Warning: this ship's position is 52 days out of date.

Length 57 m; draft 4.2 m.

Type: Sailing vessel. MMSI: 246709000.

Date/timePositionNaut miles runAvg speedWind from/ knotsBaromVisibWave heightAir tempDewpointWater temp
2018-Oct-19 06:40N 35°58' W 005°37'1 5.6
2018-Oct-19 06:29N 35°58' W 005°35'2 5.4
2018-Oct-19 06:03N 35°59' W 005°33'0 5.3
2018-Oct-19 06:00N 35°59' W 005°32'3 5.2
2018-Oct-19 05:30N 35°60' W 005°29'2 5.4
2018-Oct-19 05:03N 36°01' W 005°26'0 5.2
2018-Oct-19 05:01N 36°01' W 005°26'2 4.9
2018-Oct-19 04:30N 36°02' W 005°23'2 4.6
2018-Oct-19 04:03N 36°02' W 005°21'0 4.8
2018-Oct-19 04:00N 36°02' W 005°21'3 5.1
2018-Oct-19 03:30N 36°03' W 005°17'3 5.6
2018-Oct-19 03:03N 36°03' W 005°15'0 5.5
2018-Oct-19 03:00N 36°04' W 005°14'3 5.5
2018-Oct-19 02:31N 36°04' W 005°11'3 6.6
2018-Oct-19 02:02N 36°05' W 005°07'0 6.3
2018-Oct-19 02:00N 36°05' W 005°07'204 4.6
2018-Oct-17 05:38N 37°13' W 001°07'3 4.8
2018-Oct-17 05:03N 37°15' W 001°05'0 4.9
2018-Oct-17 04:57N 37°16' W 001°04'3 4.6
2018-Oct-17 04:24N 37°17' W 001°02'1 3.7
2018-Oct-17 04:03N 37°18' W 001°00'0 3.8
2018-Oct-17 04:00N 37°18' W 001°00'2 4.2
2018-Oct-17 03:30N 37°19' W 000°58'2 4.8
2018-Oct-17 03:03N 37°21' W 000°56'1 5.1
2018-Oct-17 02:56N 37°21' W 000°55'2 5.5
2018-Oct-17 02:30N 37°22' W 000°53'3 5.9
2018-Oct-17 02:03N 37°24' W 000°50'0 5.9
2018-Oct-17 02:00N 37°24' W 000°50'3 5.6
2018-Oct-17 01:30N 37°26' W 000°47'2 5.3
2018-Oct-17 01:03N 37°27' W 000°44'0 5.3
2018-Oct-17 01:00N 37°27' W 000°44'3 5.4
2018-Oct-17 00:30N 37°29' W 000°41'3 5.7
2018-Oct-17 00:02N 37°31' W 000°39'0 5.7
2018-Oct-17 00:00N 37°31' W 000°39'3 5.7
2018-Oct-16 23:30N 37°33' W 000°36'3 5.7
2018-Oct-16 23:03N 37°35' W 000°34'0 5.8
2018-Oct-16 23:00N 37°35' W 000°34'3 5.8
2018-Oct-16 22:30N 37°37' W 000°32'4 5.8
2018-Oct-16 21:44N 37°41' W 000°29'1 5.8
2018-Oct-16 21:30N 37°42' W 000°28'3 5.7
2018-Oct-16 21:03N 37°44' W 000°26'0 5.8
2018-Oct-16 21:00N 37°45' W 000°26'5 5.7
2018-Oct-16 20:03N 37°49' W 000°23'0 5.5
2018-Oct-16 20:00N 37°50' W 000°23'4 5.4
2018-Oct-16 19:20N 37°53' W 000°20'2 5.2
2018-Oct-16 18:54N 37°55' W 000°19'2 5.4
2018-Oct-16 18:30N 37°57' W 000°17'2 5.6
2018-Oct-16 18:03N 37°59' W 000°16'0 5.7
2018-Oct-16 17:59N 37°59' W 000°16'3 4.7
2018-Oct-16 17:14N 38°02' W 000°13'1 3.0
2018-Oct-16 16:59N 38°03' W 000°12'2 3.2
2018-Oct-16 16:27N 38°04' W 000°11'80 3.3
2018-Oct-15 16:03N 39°24' W 000°09'0 5.2
2018-Oct-15 15:59N 39°24' W 000°09'2 4.5
2018-Oct-15 15:26N 39°25' W 000°12'3 5.9
2018-Oct-15 14:52N 39°27' W 000°16'2 6.2
2018-Oct-15 14:30N 39°28' W 000°18'1 0.1
2018-Oct-14 23:00N 39°28' W 000°19'0 0.0
2018-Oct-12 20:06N 39°28' W 000°19'0 0.0
2018-Oct-12 20:00N 39°28' W 000°19'0 0.0
2018-Oct-12 12:00N 39°28' W 000°19'0 0.0
2018-Oct-12 10:36N 39°28' W 000°19'0 0.0
2018-Oct-12 09:36N 39°28' W 000°19'0 0.0
2018-Oct-12 09:30N 39°28' W 000°19'0 0.0
2018-Oct-12 08:24N 39°28' W 000°19'0 0.0
2018-Oct-12 07:42N 39°28' W 000°19'0 0.0
2018-Oct-12 07:00N 39°28' W 000°19'0 0.0
2018-Oct-12 06:24N 39°28' W 000°19'0 0.0
2018-Oct-12 05:24N 39°28' W 000°19'0 0.0
2018-Oct-12 04:42N 39°28' W 000°19'0 0.0
2018-Oct-12 04:12N 39°28' W 000°19'0 0.0
2018-Oct-12 03:54N 39°28' W 000°19'0 0.0
2018-Oct-12 02:48N 39°28' W 000°19'0 0.0
2018-Oct-12 01:42N 39°28' W 000°19'0 0.0
2018-Oct-12 01:00N 39°28' W 000°19'0 0.0
2018-Oct-11 23:54N 39°28' W 000°19'0 0.0
2018-Oct-11 23:18N 39°28' W 000°19'0 0.0
2018-Oct-11 23:03N 39°28' W 000°19'0 0.0
2018-Oct-11 08:21N 39°28' W 000°19'0 0.9
2018-Oct-11 08:03N 39°28' W 000°19'0 3.4
2018-Oct-11 08:00N 39°28' W 000°19'2 4.1
2018-Oct-11 07:29N 39°26' W 000°17'3 7.1
2018-Oct-11 07:03N 39°23' W 000°18'0 1.2
2018-Oct-11 07:00N 39°23' W 000°18'0 0.0
2018-Oct-11 06:13N 39°23' W 000°18'0 0.0
2018-Oct-11 05:31N 39°23' W 000°18'0 0.1
2018-Oct-11 05:25N 39°23' W 000°18'0 0.0
2018-Oct-11 03:49N 39°23' W 000°18'0 0.0
2018-Oct-11 00:31N 39°23' W 000°18'0 0.0
2018-Oct-11 00:07N 39°23' W 000°18'0 0.0
2018-Oct-10 23:31N 39°23' W 000°18'0 0.0
2018-Oct-10 23:25N 39°23' W 000°18'0 0.0
2018-Oct-10 22:55N 39°23' W 000°18'0 0.0
2018-Oct-10 22:19N 39°23' W 000°18'0 0.0
2018-Oct-10 19:10N 39°23' W 000°18'0 0.1
2018-Oct-10 18:59N 39°23' W 000°18'5 3.5
2018-Oct-10 17:26N 39°26' W 000°12'3 2.9
2018-Oct-10 16:21N 39°28' W 000°09'  
Track history (hours):
 
Tides and Currents Weather Stations Pressure Air Temp Water Temp Dewpoint Dewpoint Depression Visibility Wind Speed Wind Dir Waves Ship Positions

Gulden Leeuw

Last reported at 2018-Oct-19 06:40 UTC. Time now 2018-Dec-10 23:58 UTC.
Position N 35°58' W 005°37'.
Warning: this ship's position is 52 days out of date.

Length 57 m; draft 4.2 m.

Type: Sailing vessel. MMSI: 246709000.

Date/timePositionNaut miles runAvg speedWind from/ knotsBaromVisibWave heightAir tempDewpointWater temp
2018-Oct-19 06:40N 35°58' W 005°37'1 5.6
2018-Oct-19 06:29N 35°58' W 005°35'2 5.4
2018-Oct-19 06:03N 35°59' W 005°33'0 5.3
2018-Oct-19 06:00N 35°59' W 005°32'3 5.2
2018-Oct-19 05:30N 35°60' W 005°29'2 5.4
2018-Oct-19 05:03N 36°01' W 005°26'0 5.2
2018-Oct-19 05:01N 36°01' W 005°26'2 4.9
2018-Oct-19 04:30N 36°02' W 005°23'2 4.6
2018-Oct-19 04:03N 36°02' W 005°21'0 4.8
2018-Oct-19 04:00N 36°02' W 005°21'3 5.1
2018-Oct-19 03:30N 36°03' W 005°17'3 5.6
2018-Oct-19 03:03N 36°03' W 005°15'0 5.5
2018-Oct-19 03:00N 36°04' W 005°14'3 5.5
2018-Oct-19 02:31N 36°04' W 005°11'3 6.6
2018-Oct-19 02:02N 36°05' W 005°07'0 6.3
2018-Oct-19 02:00N 36°05' W 005°07'204 4.6
2018-Oct-17 05:38N 37°13' W 001°07'3 4.8
2018-Oct-17 05:03N 37°15' W 001°05'0 4.9
2018-Oct-17 04:57N 37°16' W 001°04'3 4.6
2018-Oct-17 04:24N 37°17' W 001°02'1 3.7
2018-Oct-17 04:03N 37°18' W 001°00'0 3.8
2018-Oct-17 04:00N 37°18' W 001°00'2 4.2
2018-Oct-17 03:30N 37°19' W 000°58'2 4.8
2018-Oct-17 03:03N 37°21' W 000°56'1 5.1
2018-Oct-17 02:56N 37°21' W 000°55'2 5.5
2018-Oct-17 02:30N 37°22' W 000°53'3 5.9
2018-Oct-17 02:03N 37°24' W 000°50'0 5.9
2018-Oct-17 02:00N 37°24' W 000°50'3 5.6
2018-Oct-17 01:30N 37°26' W 000°47'2 5.3
2018-Oct-17 01:03N 37°27' W 000°44'0 5.3
2018-Oct-17 01:00N 37°27' W 000°44'3 5.4
2018-Oct-17 00:30N 37°29' W 000°41'3 5.7
2018-Oct-17 00:02N 37°31' W 000°39'0 5.7
2018-Oct-17 00:00N 37°31' W 000°39'3 5.7
2018-Oct-16 23:30N 37°33' W 000°36'3 5.7
2018-Oct-16 23:03N 37°35' W 000°34'0 5.8
2018-Oct-16 23:00N 37°35' W 000°34'3 5.8
2018-Oct-16 22:30N 37°37' W 000°32'4 5.8
2018-Oct-16 21:44N 37°41' W 000°29'1 5.8
2018-Oct-16 21:30N 37°42' W 000°28'3 5.7
2018-Oct-16 21:03N 37°44' W 000°26'0 5.8
2018-Oct-16 21:00N 37°45' W 000°26'5 5.7
2018-Oct-16 20:03N 37°49' W 000°23'0 5.5
2018-Oct-16 20:00N 37°50' W 000°23'4 5.4
2018-Oct-16 19:20N 37°53' W 000°20'2 5.2
2018-Oct-16 18:54N 37°55' W 000°19'2 5.4
2018-Oct-16 18:30N 37°57' W 000°17'2 5.6
2018-Oct-16 18:03N 37°59' W 000°16'0 5.7
2018-Oct-16 17:59N 37°59' W 000°16'3 4.7
2018-Oct-16 17:14N 38°02' W 000°13'1 3.0
2018-Oct-16 16:59N 38°03' W 000°12'2 3.2
2018-Oct-16 16:27N 38°04' W 000°11'80 3.3
2018-Oct-15 16:03N 39°24' W 000°09'0 5.2
2018-Oct-15 15:59N 39°24' W 000°09'2 4.5
2018-Oct-15 15:26N 39°25' W 000°12'3 5.9
2018-Oct-15 14:52N 39°27' W 000°16'2 6.2
2018-Oct-15 14:30N 39°28' W 000°18'1 0.1
2018-Oct-14 23:00N 39°28' W 000°19'0 0.0
2018-Oct-12 20:06N 39°28' W 000°19'0 0.0
2018-Oct-12 20:00N 39°28' W 000°19'0 0.0
2018-Oct-12 12:00N 39°28' W 000°19'0 0.0
2018-Oct-12 10:36N 39°28' W 000°19'0 0.0
2018-Oct-12 09:36N 39°28' W 000°19'0 0.0
2018-Oct-12 09:30N 39°28' W 000°19'0 0.0
2018-Oct-12 08:24N 39°28' W 000°19'0 0.0
2018-Oct-12 07:42N 39°28' W 000°19'0 0.0
2018-Oct-12 07:00N 39°28' W 000°19'0 0.0
2018-Oct-12 06:24N 39°28' W 000°19'0 0.0
2018-Oct-12 05:24N 39°28' W 000°19'0 0.0
2018-Oct-12 04:42N 39°28' W 000°19'0 0.0
2018-Oct-12 04:12N 39°28' W 000°19'0 0.0
2018-Oct-12 03:54N 39°28' W 000°19'0 0.0
2018-Oct-12 02:48N 39°28' W 000°19'0 0.0
2018-Oct-12 01:42N 39°28' W 000°19'0 0.0
2018-Oct-12 01:00N 39°28' W 000°19'0 0.0
2018-Oct-11 23:54N 39°28' W 000°19'0 0.0
2018-Oct-11 23:18N 39°28' W 000°19'0 0.0
2018-Oct-11 23:03N 39°28' W 000°19'0 0.0
2018-Oct-11 08:21N 39°28' W 000°19'0 0.9
2018-Oct-11 08:03N 39°28' W 000°19'0 3.4
2018-Oct-11 08:00N 39°28' W 000°19'2 4.1
2018-Oct-11 07:29N 39°26' W 000°17'3 7.1
2018-Oct-11 07:03N 39°23' W 000°18'0 1.2
2018-Oct-11 07:00N 39°23' W 000°18'0 0.0
2018-Oct-11 06:13N 39°23' W 000°18'0 0.0
2018-Oct-11 05:31N 39°23' W 000°18'0 0.1
2018-Oct-11 05:25N 39°23' W 000°18'0 0.0
2018-Oct-11 03:49N 39°23' W 000°18'0 0.0
2018-Oct-11 00:31N 39°23' W 000°18'0 0.0
2018-Oct-11 00:07N 39°23' W 000°18'0 0.0
2018-Oct-10 23:31N 39°23' W 000°18'0 0.0
2018-Oct-10 23:25N 39°23' W 000°18'0 0.0
2018-Oct-10 22:55N 39°23' W 000°18'0 0.0
2018-Oct-10 22:19N 39°23' W 000°18'0 0.0
2018-Oct-10 19:10N 39°23' W 000°18'0 0.1
2018-Oct-10 18:59N 39°23' W 000°18'5 3.5
2018-Oct-10 17:26N 39°26' W 000°12'3 2.9
2018-Oct-10 16:21N 39°28' W 000°09'  

Dump ship's entire track history